Time;durP1;ratioP1;P1;durP2;ratioP2;P2;SDS_P1;SDS_P2;PMS_P1;PMS_P2;Temp;Humidity;BMP_temperature;BMP_pressure;BME280_temperature;BME280_humidity;BME280_pressure;Samples;Min_cycle;Max_cycle;Signal;HPM_P1;HPM_P2
2023/05/31 00:02:20;;;;;;;0.20;0.20;;;18.70;63.40;;;;;;5028938;28;20037;-79
2023/05/31 00:04:46;;;;;;;0.00;0.00;;;18.60;63.90;;;;;;5040523;28;20112;-79
2023/05/31 00:07:11;;;;;;;0.47;0.47;;;18.70;63.80;;;;;;5029312;28;20048;-78
2023/05/31 00:09:37;;;;;;;0.43;0.43;;;18.60;64.40;;;;;;5031493;28;20035;-78
2023/05/31 00:12:03;;;;;;;0.37;0.37;;;18.60;64.40;;;;;;5024924;28;20036;-79
2023/05/31 00:14:29;;;;;;;0.20;0.20;;;18.50;64.70;;;;;;5022465;28;20673;-79
2023/05/31 00:16:55;;;;;;;1.40;1.30;;;18.50;64.90;;;;;;5024142;28;20029;-79
2023/05/31 00:19:20;;;;;;;0.23;0.23;;;18.40;65.40;;;;;;5033704;28;20086;-78
2023/05/31 00:21:46;;;;;;;5.83;0.97;;;18.40;65.50;;;;;;5030079;28;20022;-78
2023/05/31 00:24:12;;;;;;;0.57;0.50;;;18.30;65.80;;;;;;5028278;28;20029;-79
2023/05/31 00:26:38;;;;;;;0.98;0.98;;;18.30;66.00;;;;;;5028544;28;20508;-78
2023/05/31 00:29:04;;;;;;;0.30;0.30;;;18.40;65.80;;;;;;5031187;28;20075;-79
2023/05/31 00:31:30;;;;;;;0.77;0.30;;;18.30;66.80;;;;;;5021780;28;20033;-79
2023/05/31 00:33:57;;;;;;;1.00;0.25;;;18.30;66.00;;;;;;5029103;28;20036;-79
2023/05/31 00:36:22;;;;;;;0.38;0.38;;;18.20;66.00;;;;;;5038174;28;20029;-79
2023/05/31 00:38:49;;;;;;;0.23;0.23;;;18.30;65.80;;;;;;5028063;28;20546;-79
2023/05/31 00:41:15;;;;;;;2.30;0.75;;;18.20;65.90;;;;;;5029389;28;20029;-80
2023/05/31 00:43:41;;;;;;;0.88;0.68;;;18.30;65.80;;;;;;5021409;28;20031;-79
2023/05/31 00:46:12;;;;;;;1.17;0.97;;;18.40;65.60;;;;;;5044099;28;20904;-79
2023/05/31 00:48:39;;;;;;;1.20;0.82;;;18.20;65.90;;;;;;5034669;28;20068;-80
2023/05/31 00:51:05;;;;;;;;;;;18.20;66.00;;;;;;5038825;28;20584;-80
2023/05/31 00:53:30;;;;;;;;;;;18.10;66.10;;;;;;5031727;28;20265;-79
2023/05/31 00:55:57;;;;;;;;;;;18.10;66.50;;;;;;5035316;28;19945;-79
2023/05/31 00:58:22;;;;;;;;;;;18.10;66.60;;;;;;5025800;28;19915;-79
2023/05/31 01:00:48;;;;;;;;;;;17.90;67.00;;;;;;5034231;28;20247;-80
2023/05/31 01:03:15;;;;;;;;;;;18.00;66.90;;;;;;5038769;28;19970;-79
2023/05/31 01:05:41;;;;;;;;;;;17.90;67.20;;;;;;5034712;28;19918;-80
2023/05/31 01:08:07;;;;;;;;;;;17.90;67.30;;;;;;5032134;28;19917;-80
2023/05/31 01:10:32;;;;;;;;;;;17.90;67.30;;;;;;5038566;28;19913;-80
2023/05/31 01:13:07;;;;;;;;;;;17.90;67.10;;;;;;5010533;28;19913;-80
2023/05/31 01:15:35;;;;;;;;;;;17.80;67.20;;;;;;5033292;28;19955;-80
2023/05/31 01:18:03;;;;;;;;;;;17.80;67.00;;;;;;5032216;28;19920;-80
2023/05/31 01:20:34;;;;;;;;;;;17.80;67.30;;;;;;5038720;28;20415;-79
2023/05/31 01:23:21;;;;;;;;;;;17.80;67.60;;;;;;5041229;28;19960;-79
2023/05/31 01:25:50;;;;;;;;;;;17.60;68.20;;;;;;5033745;28;19967;-80
2023/05/31 01:28:16;;;;;;;;;;;17.50;68.80;;;;;;5040934;28;20360;-80
2023/05/31 01:30:44;;;;;;;;;;;17.50;69.10;;;;;;5040883;28;20000;-80
2023/05/31 01:33:10;;;;;;;;;;;17.50;68.90;;;;;;5036630;28;20012;-80
2023/05/31 01:35:36;;;;;;;;;;;17.50;68.50;;;;;;5040268;28;19995;-80
2023/05/31 01:38:02;;;;;;;;;;;17.50;68.90;;;;;;5042155;28;20208;-79
2023/05/31 01:40:27;;;;;;;;;;;17.40;69.10;;;;;;5037812;28;19912;-79
2023/05/31 01:42:53;;;;;;;;;;;17.40;69.40;;;;;;5034762;28;19909;-80
2023/05/31 01:45:19;;;;;;;;;;;17.30;69.90;;;;;;5035206;28;19916;-79
2023/05/31 01:47:45;;;;;;;;;;;17.30;69.70;;;;;;5032244;28;19921;-79
2023/05/31 01:50:12;;;;;;;;;;;17.30;69.90;;;;;;5030029;28;19920;-80
2023/05/31 01:52:38;;;;;;;;;;;17.20;70.00;;;;;;5036257;28;19919;-80
2023/05/31 01:55:03;;;;;;;;;;;17.10;70.30;;;;;;5037019;28;19909;-80
2023/05/31 01:57:30;;;;;;;;;;;17.10;70.30;;;;;;5026092;28;19917;-80
2023/05/31 01:59:56;;;;;;;;;;;17.10;70.60;;;;;;5035703;28;19981;-80
2023/05/31 02:02:22;;;;;;;;;;;17.00;70.50;;;;;;5027277;28;19959;-80
2023/05/31 02:04:48;;;;;;;;;;;17.10;70.40;;;;;;5027492;28;20501;-80
2023/05/31 02:07:14;;;;;;;;;;;17.00;70.40;;;;;;5037520;28;19917;-80
2023/05/31 02:09:39;;;;;;;;;;;17.00;70.50;;;;;;5037548;28;19917;-80
2023/05/31 02:12:05;;;;;;;;;;;17.00;70.10;;;;;;5028599;28;20584;-80
2023/05/31 02:14:30;;;;;;;;;;;17.00;70.00;;;;;;5032095;28;19913;-80
2023/05/31 02:16:56;;;;;;;;;;;17.00;69.90;;;;;;5039182;28;20028;-80
2023/05/31 02:19:25;;;;;;;;;;;17.00;69.70;;;;;;5030457;28;20398;-80
2023/05/31 02:21:51;;;;;;;;;;;16.90;70.10;;;;;;5025330;28;20007;-80
2023/05/31 02:24:17;;;;;;;;;;;16.90;70.10;;;;;;5038520;28;19912;-80
2023/05/31 02:26:42;;;;;;;;;;;16.90;70.30;;;;;;5040176;28;19932;-80
2023/05/31 02:29:09;;;;;;;;;;;16.90;70.20;;;;;;5026411;28;19952;-80
2023/05/31 02:31:34;;;;;;;;;;;16.80;70.30;;;;;;5031987;28;19916;-80
2023/05/31 02:34:00;;;;;;;;;;;16.90;70.40;;;;;;5029616;28;20443;-80
2023/05/31 02:36:28;;;;;;;;;;;16.80;70.40;;;;;;5017456;28;19913;-81
2023/05/31 02:38:53;;;;;;;;;;;16.80;70.30;;;;;;5033347;28;19913;-81
2023/05/31 02:41:20;;;;;;;;;;;16.70;70.90;;;;;;5028366;28;20281;-80
2023/05/31 02:43:45;;;;;;;;;;;16.70;71.10;;;;;;5029953;28;19974;-82
2023/05/31 02:46:11;;;;;;;;;;;16.70;71.30;;;;;;5027350;28;20427;-81
2023/05/31 02:48:36;;;;;;;;;;;16.60;71.40;;;;;;5035170;28;20451;-81
2023/05/31 02:51:02;;;;;;;;;;;16.60;71.40;;;;;;5035097;28;19919;-82
2023/05/31 02:53:30;;;;;;;;;;;16.50;71.70;;;;;;5032834;28;19959;-82
2023/05/31 02:55:56;;;;;;;;;;;16.50;71.80;;;;;;5039453;28;20000;-82
2023/05/31 02:58:21;;;;;;;;;;;16.50;71.50;;;;;;5029431;28;19913;-81
2023/05/31 03:00:47;;;;;;;;;;;16.50;71.70;;;;;;5035843;28;20007;-82
2023/05/31 03:03:12;;;;;;;;;;;16.40;71.80;;;;;;5036474;28;20027;-82
2023/05/31 03:05:38;;;;;;;;;;;16.40;72.40;;;;;;5032033;28;19917;-82
2023/05/31 03:08:03;;;;;;;;;;;16.40;71.90;;;;;;5038672;28;19916;-82
2023/05/31 03:10:29;;;;;;;;;;;16.40;72.00;;;;;;5041752;28;19919;-82
2023/05/31 03:12:54;;;;;;;;;;;16.30;72.50;;;;;;5036431;28;19953;-81
2023/05/31 03:15:20;;;;;;;;;;;16.30;72.40;;;;;;5035501;28;19912;-81
2023/05/31 03:17:46;;;;;;;;;;;16.20;72.60;;;;;;5041271;28;20379;-81
2023/05/31 03:20:11;;;;;;;;;;;16.20;72.80;;;;;;5034073;28;20764;-81
2023/05/31 03:22:37;;;;;;;;;;;16.20;72.80;;;;;;5039969;28;20034;-81
2023/05/31 03:25:03;;;;;;;;;;;16.20;72.90;;;;;;5037711;28;19909;-81
2023/05/31 03:27:30;;;;;;;;;;;16.20;73.00;;;;;;5026101;28;19943;-80
2023/05/31 03:29:55;;;;;;;;;;;16.10;73.30;;;;;;5039604;28;19991;-80
2023/05/31 03:32:21;;;;;;;;;;;16.10;73.30;;;;;;5035731;28;19921;-81
2023/05/31 03:34:46;;;;;;;;;;;16.10;73.40;;;;;;5036755;28;20031;-81
2023/05/31 03:37:12;;;;;;;;;;;16.00;73.40;;;;;;5034856;28;20016;-80
2023/05/31 03:39:37;;;;;;;;;;;16.00;73.50;;;;;;5039032;28;19962;-80
2023/05/31 03:42:03;;;;;;;;;;;16.00;73.70;;;;;;5041374;28;20441;-80
2023/05/31 03:44:29;;;;;;;;;;;15.90;73.90;;;;;;5035596;28;19912;-79
2023/05/31 03:46:54;;;;;;;;;;;15.90;73.80;;;;;;5041030;28;20450;-79
2023/05/31 03:49:20;;;;;;;;;;;15.90;74.00;;;;;;5030942;28;19935;-79
2023/05/31 03:51:46;;;;;;;;;;;15.80;74.30;;;;;;5030129;28;19920;-79
2023/05/31 03:54:11;;;;;;;;;;;15.90;74.30;;;;;;5023145;28;20733;-82
2023/05/31 03:56:37;;;;;;;;;;;15.80;74.40;;;;;;5032932;28;19956;-82
2023/05/31 03:59:03;;;;;;;;;;;15.80;74.60;;;;;;5032936;28;19964;-81
2023/05/31 04:01:28;;;;;;;;;;;15.70;74.80;;;;;;5027905;28;19972;-80
2023/05/31 04:03:54;;;;;;;;;;;15.80;74.70;;;;;;5035310;28;20972;-79
2023/05/31 04:06:20;;;;;;;;;;;15.80;74.40;;;;;;5039444;28;19916;-79
2023/05/31 04:08:46;;;;;;;;;;;15.70;75.10;;;;;;5039203;28;19996;-79
2023/05/31 04:11:11;;;;;;;;;;;15.70;75.20;;;;;;5040385;28;19962;-79
2023/05/31 04:13:37;;;;;;;;;;;15.70;75.10;;;;;;5040846;28;20371;-79
2023/05/31 04:16:03;;;;;;;;;;;15.70;74.80;;;;;;5042381;28;19999;-79
2023/05/31 04:18:28;;;;;;;;;;;15.70;75.00;;;;;;5042024;28;19916;-79
2023/05/31 04:20:54;;;;;;;;;;;15.70;74.90;;;;;;5043926;28;20012;-79
2023/05/31 04:23:20;;;;;;;;;;;15.70;74.90;;;;;;5040414;28;19951;-79
2023/05/31 04:25:45;;;;;;;;;;;15.70;74.80;;;;;;5042567;28;19908;-81
2023/05/31 04:28:12;;;;;;;;;;;15.80;74.70;;;;;;5038514;28;19966;-79
2023/05/31 04:30:38;;;;;;;;;;;15.80;74.60;;;;;;5042604;28;19912;-80
2023/05/31 04:33:04;;;;;;;;;;;16.10;74.10;;;;;;5037397;28;20268;-80
2023/05/31 04:35:30;;;;;;;;;;;16.40;73.00;;;;;;5038729;28;19956;-80
2023/05/31 04:37:59;;;;;;;;;;;16.70;71.60;;;;;;5039120;28;20020;-81
2023/05/31 04:40:27;;;;;;;;;;;16.90;71.00;;;;;;5039953;28;19917;-80
2023/05/31 04:42:53;;;;;;;;;;;17.20;70.20;;;;;;5037370;28;19958;-78
2023/05/31 04:45:18;;;;;;;;;;;17.40;70.00;;;;;;5044079;28;19915;-78
2023/05/31 04:47:49;;;;;;;;;;;17.70;68.50;;;;;;5045805;28;19917;-77
2023/05/31 04:50:15;;;;;;;;;;;17.90;67.80;;;;;;5038200;28;19913;-77
2023/05/31 04:52:41;;;;;;;;;;;18.20;67.20;;;;;;5037012;28;20613;-77
2023/05/31 04:55:07;;;;;;;;;;;18.50;66.70;;;;;;5039876;28;19912;-77
2023/05/31 04:57:32;;;;;;;;;;;18.70;65.70;;;;;;5042164;28;19913;-77
2023/05/31 04:59:58;;;;;;;;;;;19.10;64.50;;;;;;5036610;28;19996;-78
2023/05/31 05:02:24;;;;;;;;;;;19.20;63.70;;;;;;5039381;28;19924;-78
2023/05/31 05:04:50;;;;;;;;;;;19.50;62.80;;;;;;5037696;28;19916;-77
2023/05/31 05:07:16;;;;;;;;;;;19.60;62.70;;;;;;5029942;28;19928;-78
2023/05/31 05:09:42;;;;;;;;;;;20.10;61.50;;;;;;5031697;28;19913;-77
2023/05/31 05:12:07;;;;;;;;;;;20.40;60.90;;;;;;5038998;28;19912;-80
2023/05/31 05:14:33;;;;;;;;;;;20.60;59.60;;;;;;5014120;28;19928;-79
2023/05/31 05:16:59;;;;;;;;;;;21.00;59.00;;;;;;5034258;28;19916;-81
2023/05/31 05:19:24;;;;;;;;;;;21.20;58.80;;;;;;5042728;28;19913;-82
2023/05/31 05:21:50;;;;;;;;;;;21.60;56.80;;;;;;5026757;28;19917;-81
2023/05/31 05:24:16;;;;;;;;;;;21.60;56.50;;;;;;5040014;28;19969;-83
2023/05/31 05:26:41;;;;;;;;;;;21.70;56.30;;;;;;5032755;28;19913;-80
2023/05/31 05:29:07;;;;;;;;;;;21.80;55.80;;;;;;5037743;28;20003;-79
2023/05/31 05:31:33;;;;;;;;;;;21.80;56.20;;;;;;5038049;28;19912;-80
2023/05/31 05:33:58;;;;;;;;;;;22.30;55.20;;;;;;5037269;28;20366;-81
2023/05/31 05:36:25;;;;;;;;;;;22.70;54.10;;;;;;5037797;28;19967;-81
2023/05/31 05:38:50;;;;;;;;;;;22.90;53.80;;;;;;5038038;28;19912;-80
2023/05/31 05:41:16;;;;;;;;;;;23.00;53.10;;;;;;5034141;28;19959;-80
2023/05/31 05:43:42;;;;;;;;;;;23.30;52.60;;;;;;5038888;28;19919;-81
2023/05/31 05:46:07;;;;;;;;;;;23.30;52.20;;;;;;5031100;28;19995;-79
2023/05/31 05:48:33;;;;;;;;;;;23.60;51.80;;;;;;5036455;28;19999;-78
2023/05/31 05:50:59;;;;;;;;;;;23.80;50.80;;;;;;5023630;28;19909;-78
2023/05/31 05:53:25;;;;;;;;;;;24.10;51.10;;;;;;5039425;28;19917;-79
2023/05/31 05:55:51;;;;;;;;;;;24.10;50.10;;;;;;5025610;28;19913;-78
2023/05/31 05:58:16;;;;;;;;;;;24.80;49.00;;;;;;5041091;28;19916;-78
2023/05/31 06:00:44;;;;;;;;;;;24.70;48.70;;;;;;5041316;28;19909;-78
2023/05/31 06:03:10;;;;;;;;;;;24.80;49.00;;;;;;5040139;28;20082;-78
2023/05/31 06:05:36;;;;;;;;;;;24.90;48.50;;;;;;5043437;28;19920;-79
2023/05/31 06:08:02;;;;;;;;;;;25.30;48.30;;;;;;5033174;28;20721;-78
2023/05/31 06:10:27;;;;;;;;;;;25.40;46.80;;;;;;5029909;28;19920;-77
2023/05/31 06:12:53;;;;;;;;;;;25.70;47.00;;;;;;5038643;28;19909;-78
2023/05/31 06:15:19;;;;;;;;;;;25.80;46.10;;;;;;5033223;28;19913;-78
2023/05/31 06:17:44;;;;;;;;;;;26.00;46.40;;;;;;5039423;28;20403;-78
2023/05/31 06:20:10;;;;;;;;;;;26.10;46.00;;;;;;5042293;28;19912;-78
2023/05/31 06:22:36;;;;;;;;;;;26.80;45.60;;;;;;5042466;28;19978;-77
2023/05/31 06:25:02;;;;;;;;;;;26.40;45.80;;;;;;5030731;28;20742;-78
2023/05/31 06:27:27;;;;;;;;;;;26.80;44.70;;;;;;5035254;28;19994;-78
2023/05/31 06:29:57;;;;;;;;;;;27.30;44.80;;;;;;5036372;28;20642;-77
2023/05/31 06:32:24;;;;;;;;;;;27.20;44.90;;;;;;5042535;28;20003;-78
2023/05/31 06:34:50;;;;;;;;;;;27.80;43.60;;;;;;5041295;28;19974;-77
2023/05/31 06:37:15;;;;;;;;;;;27.60;42.80;;;;;;5043059;28;20638;-77
2023/05/31 06:39:41;;;;;;;;;;;27.70;42.60;;;;;;5040941;28;20453;-78
2023/05/31 06:42:06;;;;;;;;;;;27.90;42.30;;;;;;5041576;28;19909;-77
2023/05/31 06:44:32;;;;;;;;;;;28.50;42.00;;;;;;5039438;28;20323;-78
2023/05/31 06:46:57;;;;;;;;;;;28.60;41.50;;;;;;5042875;28;20379;-77
2023/05/31 06:49:23;;;;;;;;;;;28.70;41.60;;;;;;5038400;28;19931;-77
2023/05/31 06:51:49;;;;;;;;;;;28.80;39.40;;;;;;5039102;28;19912;-77
2023/05/31 06:54:15;;;;;;;;;;;28.90;40.20;;;;;;5022849;28;19920;-77
2023/05/31 06:56:40;;;;;;;;;;;29.50;40.30;;;;;;5041994;28;19995;-77
2023/05/31 06:59:06;;;;;;;;;;;29.50;40.00;;;;;;5037376;28;19924;-78
2023/05/31 07:01:31;;;;;;;;;;;30.10;39.40;;;;;;5036027;28;19909;-77
2023/05/31 07:03:57;;;;;;;;;;;30.60;39.30;;;;;;5037710;28;20021;-78
2023/05/31 07:06:24;;;;;;;;;;;31.10;37.90;;;;;;5039450;28;19920;-77
2023/05/31 07:08:49;;;;;;;;;;;31.70;37.50;;;;;;5023654;28;19917;-77
2023/05/31 07:11:15;;;;;;;;;;;31.60;37.80;;;;;;5036833;28;20379;-78
2023/05/31 07:13:40;;;;;;;;;;;31.50;38.80;;;;;;5040639;28;20708;-77
2023/05/31 07:16:06;;;;;;;;;;;31.80;37.50;;;;;;5037796;28;19909;-77
2023/05/31 07:18:31;;;;;;;;;;;31.50;37.70;;;;;;5039299;28;19936;-77
2023/05/31 07:20:58;;;;;;;;;;;32.50;37.70;;;;;;5026698;28;19916;-79
2023/05/31 07:23:24;;;;;;;;;;;32.70;36.50;;;;;;5042838;28;19948;-78
2023/05/31 07:25:49;;;;;;;;;;;32.90;36.50;;;;;;5025843;28;19909;-77
2023/05/31 07:28:15;;;;;;;;;;;32.90;36.40;;;;;;5029998;28;19920;-77
2023/05/31 07:30:40;;;;;;;;;;;32.80;36.20;;;;;;5025014;28;19919;-78
2023/05/31 07:33:06;;;;;;;;;;;33.60;35.80;;;;;;5023579;28;19916;-77
2023/05/31 07:35:31;;;;;;;;;;;33.80;35.80;;;;;;5022717;28;19912;-78
2023/05/31 07:37:57;;;;;;;;;;;33.80;35.20;;;;;;5041376;28;19915;-78
2023/05/31 07:40:22;;;;;;;;;;;33.80;35.20;;;;;;5032658;28;19910;-78
2023/05/31 07:42:48;;;;;;;;;;;33.90;34.90;;;;;;5030891;28;19911;-78
2023/05/31 07:45:14;;;;;;;;;;;34.50;34.60;;;;;;5035398;28;19951;-77
2023/05/31 07:47:40;;;;;;;;;;;34.60;35.00;;;;;;5035563;28;20299;-79
2023/05/31 07:50:05;;;;;;;;;;;34.40;34.30;;;;;;5034159;28;20642;-77
2023/05/31 07:52:31;;;;;;;;;;;35.70;33.90;;;;;;5038579;28;19913;-77
2023/05/31 07:54:57;;;;;;;;;;;35.50;34.40;;;;;;5030969;28;20446;-78
2023/05/31 07:57:23;;;;;;;;;;;36.00;33.50;;;;;;5027499;28;19908;-77
2023/05/31 07:59:50;;;;;;;;;;;35.40;33.40;;;;;;5030630;28;20299;-78
2023/05/31 08:02:16;;;;;;;;;;;35.90;33.00;;;;;;5033895;28;19920;-78
2023/05/31 08:04:43;;;;;;;;;;;36.50;32.00;;;;;;5029279;28;19909;-78
2023/05/31 08:07:08;;;;;;;;;;;36.90;32.90;;;;;;5038128;28;20683;-78
2023/05/31 08:09:34;;;;;;;;;;;37.70;31.30;;;;;;5030126;28;19913;-77
2023/05/31 08:12:01;;;;;;;;;;;37.10;31.10;;;;;;5034880;28;19912;-77
2023/05/31 08:14:26;;;;;;;;;;;37.30;31.80;;;;;;5037524;28;19970;-78
2023/05/31 08:16:52;;;;;;;;;;;38.20;30.90;;;;;;5032365;28;20717;-78
2023/05/31 08:19:17;;;;;;;;;;;38.90;32.00;;;;;;5029530;28;20634;-78
2023/05/31 08:21:45;;;;;;;;;;;39.00;30.30;;;;;;5023873;28;19909;-78
2023/05/31 08:24:10;;;;;;;;;;;39.20;30.00;;;;;;5029479;28;20006;-78
2023/05/31 08:26:36;;;;;;;;;;;39.40;29.80;;;;;;5029668;28;20003;-78
2023/05/31 08:29:01;;;;;;;;;;;39.20;29.80;;;;;;5033702;28;20019;-78
2023/05/31 08:31:27;;;;;;;;;;;39.60;29.70;;;;;;5028093;28;20392;-78
2023/05/31 08:33:54;;;;;;;;;;;39.50;29.50;;;;;;5033037;28;19955;-79
2023/05/31 08:36:19;;;;;;;;;;;38.60;29.70;;;;;;5018657;28;19905;-78
2023/05/31 08:38:45;;;;;;;;;;;39.20;29.80;;;;;;5041367;28;19955;-77
2023/05/31 08:41:10;;;;;;;;;;;39.40;29.30;;;;;;5032808;28;19912;-78
2023/05/31 08:43:36;;;;;;;;;;;39.90;29.50;;;;;;5030445;28;19909;-78
2023/05/31 08:46:05;;;;;;;;;;;40.30;29.30;;;;;;5035724;28;20658;-78
2023/05/31 08:48:35;;;;;;;;;;;40.30;29.70;;;;;;5016372;28;20508;-78
2023/05/31 08:51:01;;;;;;;;;;;41.00;29.20;;;;;;5028112;28;19909;-78
2023/05/31 08:53:27;;;;;;;;;;;41.10;28.30;;;;;;5038457;28;19916;-78
2023/05/31 08:55:53;;;;;;;;;;;41.00;29.00;;;;;;5017936;28;20015;-78
2023/05/31 08:58:19;;;;;;;;;;;40.90;29.60;;;;;;5022545;28;19996;-77
2023/05/31 09:00:46;;;;;;;;;;;40.90;29.10;;;;;;5022619;28;19916;-77
2023/05/31 09:03:11;;;;;;;;;;;41.50;28.60;;;;;;5033900;28;19931;-77
2023/05/31 09:05:37;;;;;;;;;;;40.80;28.90;;;;;;5026284;28;19909;-78
2023/05/31 09:08:02;;;;;;;;;;;41.10;29.20;;;;;;5031112;28;19921;-77
2023/05/31 09:10:28;;;;;;;;;;;41.60;29.00;;;;;;5034438;28;19909;-79
2023/05/31 09:12:54;;;;;;;;;;;41.90;29.10;;;;;;5040345;28;19913;-78
2023/05/31 09:15:22;;;;;;;;;;;40.80;29.60;;;;;;5029908;28;19920;-78
2023/05/31 09:17:47;;;;;;;;;;;40.00;29.00;;;;;;5039930;28;19915;-78
2023/05/31 09:20:13;;;;;;;;;;;39.60;28.90;;;;;;5036233;28;19944;-78
2023/05/31 09:22:38;;;;;;;;;;;41.60;29.00;;;;;;5031488;28;19909;-78
2023/05/31 09:25:04;;;;;;;;;;;41.90;28.80;;;;;;5034091;28;19915;-78
2023/05/31 09:27:37;;;;;;;;;;;42.40;29.10;;;;;;5026689;28;19932;-78
2023/05/31 09:30:13;;;;;;;;;;;40.80;28.40;;;;;;5027535;28;19943;-78
2023/05/31 09:32:39;;;;;;;;;;;41.70;28.90;;;;;;5026115;28;20013;-78
2023/05/31 09:35:15;;;;;;;;;;;41.40;28.30;;;;;;5032466;28;20012;-78
2023/05/31 09:37:45;;;;;;;;;;;41.10;28.60;;;;;;5037480;28;20039;-78
2023/05/31 09:40:14;;;;;;;;;;;42.40;29.40;;;;;;5030479;28;20099;-78
2023/05/31 09:42:46;;;;;;;;;;;40.70;28.10;;;;;;5024909;28;19916;-78
2023/05/31 09:45:12;;;;;;;;;;;40.60;28.90;;;;;;5041811;28;19908;-78
2023/05/31 09:47:37;;;;;;;;;;;41.50;28.60;;;;;;5042911;28;19923;-78
2023/05/31 09:50:03;;;;;;;;;;;42.80;29.60;;;;;;5032163;28;19908;-78
2023/05/31 09:52:32;;;;;;;;;;;42.90;28.40;;;;;;5036113;28;19908;-78
2023/05/31 09:55:04;;;;;;;;;;;42.70;28.50;;;;;;5024850;28;19909;-78
2023/05/31 09:57:30;;;;;;;;;;;43.30;28.10;;;;;;5019850;28;20658;-78
2023/05/31 09:59:57;;;;;;;;;;;43.40;27.00;;;;;;5034744;28;19915;-78
2023/05/31 10:02:23;;;;;;;;;;;42.40;27.10;;;;;;5041668;28;19908;-77
2023/05/31 10:04:48;;;;;;;;;;;41.70;27.40;;;;;;5039888;28;19915;-78
2023/05/31 10:07:14;;;;;;;;;;;42.30;28.70;;;;;;5029785;28;19935;-77
2023/05/31 10:09:40;;;;;;;;;;;43.10;29.30;;;;;;5026448;28;19921;-78
2023/05/31 10:12:07;;;;;;;;;;;43.50;28.80;;;;;;5028271;28;19913;-78
2023/05/31 10:14:38;;;;;;;;;;;43.70;28.00;;;;;;5037306;28;19909;-77
2023/05/31 10:17:05;;;;;;;;;;;43.00;28.20;;;;;;5024355;28;19956;-77
2023/05/31 10:19:34;;;;;;;;;;;42.80;28.00;;;;;;5031919;28;19940;-77
2023/05/31 10:22:00;;;;;;;;;;;43.30;28.00;;;;;;5028195;28;19908;-77
2023/05/31 10:24:28;;;;;;;;;;;42.60;26.80;;;;;;5035536;28;19916;-77
2023/05/31 10:26:53;;;;;;;;;;;42.60;27.90;;;;;;5030920;28;20497;-77
2023/05/31 10:29:35;;;;;;;;;;;43.30;27.70;;;;;;5011968;28;19924;-79
2023/05/31 10:32:04;;;;;;;;;;;42.70;27.50;;;;;;5029200;28;19909;-77
2023/05/31 10:34:31;;;;;;;;;;;42.40;28.30;;;;;;5031497;28;19915;-78
2023/05/31 10:36:56;;;;;;;;;;;40.50;28.50;;;;;;5041948;28;19919;-78
2023/05/31 10:39:40;;;;;;;;;;;40.10;27.60;;;;;;5030701;28;19909;-78
2023/05/31 10:42:08;;;;;;;;;;;37.50;29.00;;;;;;5024249;28;19955;-77
2023/05/31 10:44:38;;;;;;;;;;;36.70;29.90;;;;;;5030888;28;19916;-77
2023/05/31 10:47:08;;;;;;;;;;;34.40;31.10;;;;;;5030266;28;20055;-78
2023/05/31 10:49:36;;;;;;;;;;;33.80;33.10;;;;;;5042885;28;19916;-78
2023/05/31 10:52:06;;;;;;;;;;;34.20;34.00;;;;;;5039969;28;19909;-79
2023/05/31 10:54:32;;;;;;;;;;;33.90;33.90;;;;;;5031718;28;19909;-77
2023/05/31 10:56:58;;;;;;;;;;;33.10;34.60;;;;;;5037754;28;19909;-78
2023/05/31 10:59:25;;;;;;;;;;;32.80;35.20;;;;;;5032427;28;20410;-78
2023/05/31 11:01:51;;;;;;;;;;;32.90;36.70;;;;;;5037202;28;19966;-78
2023/05/31 11:04:20;;;;;;;;;;;32.90;37.20;;;;;;5033616;28;19913;-77
2023/05/31 11:06:47;;;;;;;;;;;31.20;37.30;;;;;;5023550;28;19959;-78
2023/05/31 11:09:16;;;;;;;;;;;31.60;38.30;;;;;;5041212;28;19915;-77
2023/05/31 11:11:44;;;;;;;;;;;31.40;38.00;;;;;;5034225;28;19916;-77
2023/05/31 11:14:27;;;;;;;;;;;31.40;37.20;;;;;;5022852;28;19909;-77
2023/05/31 11:16:53;;;;;;;;;;;31.20;37.70;;;;;;5028427;28;20403;-78
2023/05/31 11:19:26;;;;;;;;;;;30.30;36.80;;;;;;5027926;28;19913;-78
2023/05/31 11:21:52;;;;;;;;;;;31.00;38.50;;;;;;5029352;28;20287;-78
2023/05/31 11:24:33;;;;;;;;;;;31.10;37.20;;;;;;5030031;28;20435;-78
2023/05/31 11:27:02;;;;;;;;;;;30.80;39.00;;;;;;5033602;28;19909;-79
2023/05/31 11:29:46;;;;;;;;;;;30.30;38.30;;;;;;5029374;28;19931;-79
2023/05/31 11:32:13;;;;;;;;;;;30.30;38.60;;;;;;5032289;28;20694;-78
2023/05/31 11:35:08;;;;;;;;;;;29.60;38.00;;;;;;5034791;28;20012;-78
2023/05/31 11:37:36;;;;;;;;;;;29.70;38.90;;;;;;5018601;28;20043;-78
2023/05/31 11:40:05;;;;;;;;;;;30.10;42.00;;;;;;5027456;28;20007;-78
2023/05/31 11:42:31;;;;;;;;;;;29.90;42.20;;;;;;5035714;28;19920;-78
2023/05/31 11:45:03;;;;;;;;;;;29.50;39.40;;;;;;5034555;28;19913;-78
2023/05/31 11:47:32;;;;;;;;;;;29.40;38.10;;;;;;5033939;28;19913;-78
2023/05/31 11:49:58;;;;;;;;;;;29.50;38.60;;;;;;5016506;28;19931;-78
2023/05/31 11:52:23;;;;;;;;;;;29.70;38.50;;;;;;5030260;28;20379;-78
2023/05/31 11:54:54;;;;;;;;;;;29.80;37.80;;;;;;5036928;28;19909;-78
2023/05/31 11:57:22;;;;;;;;;;;29.60;37.60;;;;;;5026304;28;19916;-78
2023/05/31 11:59:47;;;;;;;;;;;29.50;37.40;;;;;;5026595;28;19992;-78
2023/05/31 12:02:13;;;;;;;;;;;29.50;40.40;;;;;;5034095;28;20003;-78
2023/05/31 12:04:39;;;;;;;;;;;29.60;37.90;;;;;;5034791;28;20015;-78
2023/05/31 12:07:06;;;;;;;;;;;29.80;38.60;;;;;;5038246;28;19994;-78
2023/05/31 12:09:32;;;;;;;;;;;29.90;37.50;;;;;;5023739;28;19948;-78
2023/05/31 12:11:58;;;;;;;;;;;30.00;40.50;;;;;;5036347;28;19971;-78
2023/05/31 12:14:24;;;;;;;;;;;29.50;38.70;;;;;;5022902;28;20302;-79
2023/05/31 12:16:50;;;;;;;;;;;29.40;43.00;;;;;;5031226;28;20043;-78
2023/05/31 12:19:16;;;;;;;;;;;29.60;45.80;;;;;;5040130;28;19908;-78
2023/05/31 12:21:42;;;;;;;;;;;29.50;44.40;;;;;;5032198;28;20014;-78
2023/05/31 12:24:15;;;;;;;;;;;29.10;44.00;;;;;;5028784;28;19913;-78
2023/05/31 12:26:42;;;;;;;;;;;29.10;43.50;;;;;;5029336;28;20007;-78
2023/05/31 12:29:08;;;;;;;;;;;29.00;40.00;;;;;;5026176;28;20512;-78
2023/05/31 12:31:34;;;;;;;;;;;28.70;39.40;;;;;;5029361;28;20016;-77
2023/05/31 12:34:13;;;;;;;;;;;28.70;40.70;;;;;;5028682;28;19908;-78
2023/05/31 12:36:41;;;;;;;;;;;28.20;37.70;;;;;;5036019;28;19927;-78
2023/05/31 12:39:11;;;;;;;;;;;28.20;38.10;;;;;;5035220;28;19917;-78
2023/05/31 12:41:37;;;;;;;;;;;28.20;37.80;;;;;;5025910;28;19919;-78
2023/05/31 12:44:03;;;;;;;;;;;28.10;37.70;;;;;;5035847;28;19928;-78
2023/05/31 12:46:36;;;;;;;;;;;28.00;37.70;;;;;;5042564;28;19908;-78
2023/05/31 12:49:09;;;;;;;;;;;28.30;38.70;;;;;;5042846;28;20384;-79
2023/05/31 12:51:36;;;;;;;;;;;28.30;39.00;;;;;;5042640;28;19919;-78
2023/05/31 12:54:02;;;;;;;;;;;28.10;40.00;;;;;;5032211;28;19916;-78
2023/05/31 12:56:27;;;;;;;;;;;28.30;39.20;;;;;;5042974;28;20379;-77
2023/05/31 12:58:53;;;;;;;;;;;28.00;39.70;;;;;;5036256;28;20009;-78
2023/05/31 13:01:18;;;;;;;;;;;28.30;41.40;;;;;;5034432;28;20478;-78
2023/05/31 13:03:44;;;;;;;;;;;28.20;50.70;;;;;;5030711;28;19927;-78
2023/05/31 13:06:10;;;;;;;;;;;28.30;45.80;;;;;;5033753;28;19924;-78
2023/05/31 13:08:35;;;;;;;;;;;28.30;43.20;;;;;;5038500;28;19916;-78
2023/05/31 13:11:01;;;;;;;;;;;28.30;42.00;;;;;;5037277;28;19912;-78
2023/05/31 13:13:26;;;;;;;;;;;28.40;45.10;;;;;;5038199;28;19909;-78
2023/05/31 13:15:52;;;;;;;;;;;28.60;45.70;;;;;;5040260;28;19909;-78
2023/05/31 13:18:17;;;;;;;;;;;28.60;44.10;;;;;;5036768;28;20423;-78
2023/05/31 13:20:43;;;;;;;;;;;28.40;42.70;;;;;;5038513;28;19909;-78
2023/05/31 13:23:09;;;;;;;;;;;28.20;43.30;;;;;;5032543;28;19908;-79
2023/05/31 13:25:35;;;;;;;;;;;27.90;43.80;;;;;;5030848;28;20477;-78
2023/05/31 13:28:00;;;;;;;;;;;27.90;42.60;;;;;;5033206;28;19925;-78
2023/05/31 13:30:27;;;;;;;;;;;27.60;41.00;;;;;;5031002;28;19913;-78
2023/05/31 13:32:53;;;;;;;;;;;27.70;45.10;;;;;;5025238;28;19931;-79
2023/05/31 13:35:18;;;;;;;;;;;27.60;39.60;;;;;;5031021;28;19905;-78
2023/05/31 13:37:44;;;;;;;;;;;27.50;39.60;;;;;;5034095;28;19978;-78
2023/05/31 13:40:10;;;;;;;;;;;27.40;36.90;;;;;;5029691;28;19930;-78
2023/05/31 13:42:36;;;;;;;;;;;27.40;37.10;;;;;;5035619;28;19956;-79
2023/05/31 13:45:01;;;;;;;;;;;27.40;36.10;;;;;;5038498;28;19952;-78
2023/05/31 13:47:27;;;;;;;;;;;27.40;36.20;;;;;;5037569;28;20715;-79
2023/05/31 13:49:52;;;;;;;;;;;27.50;36.60;;;;;;5033071;28;20269;-79
2023/05/31 13:52:18;;;;;;;;;;;27.40;37.50;;;;;;5027719;28;20398;-79
2023/05/31 13:54:44;;;;;;;;;;;27.40;39.20;;;;;;5024630;28;20292;-78
2023/05/31 13:57:09;;;;;;;;;;;27.30;39.50;;;;;;5036606;28;20015;-78
2023/05/31 13:59:35;;;;;;;;;;;27.30;42.40;;;;;;5041837;28;19909;-78
2023/05/31 14:02:00;;;;;;;;;;;27.30;41.90;;;;;;5036956;28;20535;-78
2023/05/31 14:04:26;;;;;;;;;;;27.20;44.30;;;;;;5041176;28;20004;-78
2023/05/31 14:06:52;;;;;;;;;;;27.30;42.10;;;;;;5025983;28;19992;-79
2023/05/31 14:09:18;;;;;;;;;;;27.30;42.60;;;;;;5039871;28;19912;-79